Time;durP1;ratioP1;P1;durP2;ratioP2;P2;SDS_P1;SDS_P2;PMS_P1;PMS_P2;Temp;Humidity;BMP_temperature;BMP_pressure;BME280_temperature;BME280_humidity;BME280_pressure;Samples;Min_cycle;Max_cycle;Signal;HPM_P1;HPM_P2
2022/11/30 00:00:39;;;;;;;35.87;26.67;;;;;;;6.04;100.00;98364.22;5093944;28;20232;-71
2022/11/30 00:03:07;;;;;;;38.13;25.97;;;;;;;6.16;100.00;98365.41;5093958;28;20204;-71
2022/11/30 00:05:33;;;;;;;39.23;27.27;;;;;;;6.10;100.00;98366.94;5093814;28;20238;-71
2022/11/30 00:08:02;;;;;;;37.60;26.87;;;;;;;6.09;100.00;98361.84;5093797;28;20204;-71
2022/11/30 00:10:29;;;;;;;36.97;25.40;;;;;;;6.21;100.00;98361.22;5093733;28;20645;-71
2022/11/30 00:12:55;;;;;;;38.20;26.70;;;;;;;6.12;100.00;98362.31;5094847;28;20286;-71
2022/11/30 00:15:22;;;;;;;37.50;25.60;;;;;;;6.16;100.00;98360.13;5093976;28;20200;-71
2022/11/30 00:17:48;;;;;;;40.77;27.23;;;;;;;6.04;100.00;98361.56;5093946;28;20230;-71
2022/11/30 00:20:15;;;;;;;40.73;28.37;;;;;;;6.02;100.00;98358.31;5093716;28;20211;-71
2022/11/30 00:22:42;;;;;;;40.80;28.53;;;;;;;5.92;100.00;98358.56;5093581;28;20217;-71
2022/11/30 00:25:09;;;;;;;36.37;26.80;;;;;;;5.87;100.00;98362.75;5094605;28;20211;-71
2022/11/30 00:27:36;;;;;;;40.10;27.43;;;;;;;5.98;100.00;98360.47;5093676;28;20195;-70
2022/11/30 00:30:02;;;;;;;43.37;28.17;;;;;;;5.90;100.00;98365.88;5094450;28;20214;-71
2022/11/30 00:32:29;;;;;;;38.57;27.70;;;;;;;5.91;100.00;98356.13;5093433;28;20722;-71
2022/11/30 00:34:55;;;;;;;41.90;28.10;;;;;;;5.86;100.00;98361.13;5093775;28;20210;-71
2022/11/30 00:37:22;;;;;;;42.03;27.97;;;;;;;5.82;100.00;98354.56;5093673;28;20230;-71
2022/11/30 00:39:48;;;;;;;39.07;27.50;;;;;;;5.87;100.00;98347.75;5093493;28;20211;-71
2022/11/30 00:42:15;;;;;;;39.17;27.07;;;;;;;5.91;100.00;98353.47;5093474;28;20234;-71
2022/11/30 00:44:41;;;;;;;38.43;26.97;;;;;;;5.90;100.00;98351.84;5093625;28;20210;-71
2022/11/30 00:47:08;;;;;;;42.37;28.63;;;;;;;5.88;100.00;98351.22;5093663;28;20200;-71
2022/11/30 00:49:34;;;;;;;39.53;27.43;;;;;;;5.91;100.00;98353.47;5093154;28;20206;-71
2022/11/30 00:52:01;;;;;;;39.20;29.00;;;;;;;5.97;100.00;98358.06;5094064;28;20701;-71
2022/11/30 00:54:28;;;;;;;46.50;29.20;;;;;;;5.89;100.00;98352.84;5094110;28;20207;-71
2022/11/30 00:56:54;;;;;;;44.37;29.07;;;;;;;5.95;100.00;98355.59;5093514;28;20200;-71
2022/11/30 00:59:20;;;;;;;42.70;28.77;;;;;;;5.90;100.00;98355.31;5093573;28;20204;-71
2022/11/30 01:01:47;;;;;;;44.40;30.07;;;;;;;5.87;100.00;98349.56;5093464;28;20249;-71
2022/11/30 01:04:13;;;;;;;43.73;29.00;;;;;;;5.87;100.00;98352.19;5093523;28;20207;-71
2022/11/30 01:06:40;;;;;;;40.50;29.40;;;;;;;5.78;100.00;98354.09;5093386;28;20207;-71
2022/11/30 01:09:06;;;;;;;43.43;29.10;;;;;;;5.89;100.00;98358.94;5093434;28;20545;-71
2022/11/30 01:11:33;;;;;;;40.53;27.27;;;;;;;5.84;100.00;98363.13;5093364;28;20281;-71
2022/11/30 01:14:01;;;;;;;39.40;28.63;;;;;;;5.75;100.00;98362.34;5093335;28;20214;-71
2022/11/30 01:16:31;;;;;;;40.13;28.23;;;;;;;5.85;100.00;98362.13;5093412;28;20207;-70
2022/11/30 01:18:57;;;;;;;38.93;27.50;;;;;;;5.89;100.00;98355.50;5093367;28;20227;-71
2022/11/30 01:21:26;;;;;;;38.30;25.77;;;;;;;5.92;100.00;98363.84;5093295;28;20230;-71
2022/11/30 01:23:53;;;;;;;42.53;28.50;;;;;;;5.85;100.00;98362.97;5093201;28;20223;-71
2022/11/30 01:26:20;;;;;;;39.87;28.37;;;;;;;5.81;100.00;98366.97;5093311;28;20205;-71
2022/11/30 01:28:52;;;;;;;42.70;27.77;;;;;;;5.79;100.00;98365.47;5093301;28;20199;-71
2022/11/30 01:31:20;;;;;;;37.40;27.00;;;;;;;5.82;100.00;98375.69;5093409;28;20228;-71
2022/11/30 01:33:51;;;;;;;39.60;26.43;;;;;;;5.83;100.00;98369.44;5092543;28;20207;-71
2022/11/30 01:36:22;;;;;;;36.73;25.53;;;;;;;5.73;100.00;98374.91;5093274;28;20204;-71
2022/11/30 01:38:51;;;;;;;36.97;26.60;;;;;;;5.78;100.00;98374.38;5093185;28;20209;-71
2022/11/30 01:41:32;;;;;;;38.63;26.70;;;;;;;5.79;100.00;98381.31;5092715;28;20715;-71
2022/11/30 01:44:25;;;;;;;35.37;25.73;;;;;;;5.82;100.00;98379.16;5093139;28;20192;-71
2022/11/30 01:47:02;;;;;;;36.87;26.00;;;;;;;5.86;100.00;98377.78;5092857;28;20199;-71
2022/11/30 01:49:36;;;;;;;31.67;24.77;;;;;;;5.97;100.00;98379.16;5093182;28;20196;-71
2022/11/30 01:52:08;;;;;;;32.33;24.40;;;;;;;5.86;100.00;98383.06;5093033;28;20232;-71
2022/11/30 01:54:44;;;;;;;33.57;25.83;;;;;;;5.82;100.00;98383.59;5093826;28;20603;-71
2022/11/30 01:57:21;;;;;;;36.20;26.33;;;;;;;5.82;100.00;98376.50;5093022;28;20195;-71
2022/11/30 01:59:51;;;;;;;36.20;26.67;;;;;;;5.79;100.00;98376.03;5093078;28;20188;-71
2022/11/30 02:02:24;;;;;;;37.67;25.90;;;;;;;5.85;100.00;98377.97;5096567;28;20265;-71
2022/11/30 02:04:50;;;;;;;38.03;27.80;;;;;;;5.78;100.00;98375.19;5096637;28;20270;-71
2022/11/30 02:07:17;;;;;;;32.67;24.50;;;;;;;5.93;100.00;98377.88;5096563;28;20214;-71
2022/11/30 02:09:44;;;;;;;32.93;24.83;;;;;;;5.79;100.00;98379.47;5096436;28;20210;-71
2022/11/30 02:12:29;;;;;;;33.90;25.67;;;;;;;5.86;100.00;98376.97;5096310;28;20230;-71
2022/11/30 02:15:02;;;;;;;33.57;24.33;;;;;;;5.85;100.00;98383.25;5096933;28;20192;-71
2022/11/30 02:17:45;;;;;;;32.97;24.13;;;;;;;5.92;100.00;98384.16;5094836;28;20212;-71
2022/11/30 02:20:22;;;;;;;38.40;25.57;;;;;;;5.96;100.00;98385.41;5096169;28;20195;-71
2022/11/30 02:23:17;;;;;;;37.00;26.43;;;;;;;5.87;100.00;98381.22;5094610;28;20211;-71
2022/11/30 02:26:05;;;;;;;36.73;25.17;;;;;;;5.81;100.00;98385.44;5095842;28;20688;-71
2022/11/30 02:28:43;;;;;;;33.57;25.47;;;;;;;5.85;100.00;98392.00;5095871;28;20600;-71
2022/11/30 02:31:16;;;;;;;34.53;24.90;;;;;;;5.82;100.00;98387.06;5096075;28;20256;-71
2022/11/30 02:33:43;;;;;;;33.90;24.10;;;;;;;5.94;100.00;98382.97;5096605;28;20191;-71
2022/11/30 02:36:10;;;;;;;33.67;23.17;;;;;;;5.85;100.00;98380.59;5095857;28;20625;-71
2022/11/30 02:38:38;;;;;;;35.10;23.70;;;;;;;5.91;100.00;98385.97;5096367;28;20301;-71
2022/11/30 02:41:04;;;;;;;30.80;21.77;;;;;;;5.88;100.00;98386.31;5095744;28;20314;-71
2022/11/30 02:43:31;;;;;;;28.50;22.27;;;;;;;5.81;100.00;98379.31;5095804;28;20222;-71
2022/11/30 02:46:01;;;;;;;35.50;23.13;;;;;;;5.84;100.00;98385.03;5095837;28;20206;-71
2022/11/30 02:48:34;;;;;;;31.53;21.73;;;;;;;5.88;100.00;98381.06;5095756;28;20195;-71
2022/11/30 02:51:04;;;;;;;32.70;22.83;;;;;;;5.82;100.00;98381.78;5095268;28;20223;-71
2022/11/30 02:53:31;;;;;;;31.17;21.80;;;;;;;5.94;100.00;98379.50;5095699;28;20549;-71
2022/11/30 02:55:57;;;;;;;28.30;20.97;;;;;;;5.81;100.00;98384.59;5095321;28;20569;-71
2022/11/30 02:58:23;;;;;;;31.30;21.30;;;;;;;5.83;100.00;98385.25;5095454;28;20223;-71
2022/11/30 03:00:50;;;;;;;27.60;20.50;;;;;;;5.83;100.00;98383.41;5095369;28;20242;-71
2022/11/30 03:03:16;;;;;;;28.67;22.33;;;;;;;5.80;100.00;98377.66;5095472;28;20230;-71
2022/11/30 03:05:43;;;;;;;27.83;19.83;;;;;;;5.88;100.00;98385.53;5095374;28;20204;-71
2022/11/30 03:08:09;;;;;;;28.47;21.33;;;;;;;5.96;100.00;98383.59;5095269;28;20210;-71
2022/11/30 03:10:35;;;;;;;27.10;20.93;;;;;;;5.93;100.00;98388.44;5095097;28;20228;-71
2022/11/30 03:13:02;;;;;;;29.77;20.90;;;;;;;5.89;100.00;98379.25;5094992;28;20210;-71
2022/11/30 03:15:28;;;;;;;27.63;20.80;;;;;;;6.01;100.00;98391.00;5095138;28;20211;-71
2022/11/30 03:17:55;;;;;;;32.80;22.50;;;;;;;5.92;100.00;98389.44;5095030;28;20714;-71
2022/11/30 03:20:21;;;;;;;31.47;22.50;;;;;;;5.83;100.00;98390.53;5095049;28;20204;-71
2022/11/30 03:22:47;;;;;;;28.70;20.70;;;;;;;5.80;100.00;98398.75;5094873;28;20211;-71
2022/11/30 03:25:14;;;;;;;29.73;21.47;;;;;;;5.85;100.00;98399.06;5094958;28;20203;-71
2022/11/30 03:27:40;;;;;;;31.17;21.77;;;;;;;5.86;100.00;98401.53;5095005;28;20230;-71
2022/11/30 03:30:07;;;;;;;26.33;20.20;;;;;;;5.79;100.00;98400.56;5094847;28;20207;-71
2022/11/30 03:32:34;;;;;;;27.37;20.70;;;;;;;5.88;100.00;98396.09;5094779;28;20223;-71
2022/11/30 03:35:00;;;;;;;28.33;20.77;;;;;;;5.89;100.00;98405.63;5094794;28;20210;-71
2022/11/30 03:37:26;;;;;;;24.00;19.60;;;;;;;5.83;100.00;98401.88;5094426;28;20592;-71
2022/11/30 03:39:53;;;;;;;26.73;20.57;;;;;;;5.86;100.00;98395.41;5094723;28;20200;-71
2022/11/30 03:42:19;;;;;;;29.67;20.90;;;;;;;5.83;100.00;98396.59;5094262;28;20231;-71
2022/11/30 03:44:45;;;;;;;30.70;22.10;;;;;;;5.74;100.00;98396.84;5094582;28;20208;-71
2022/11/30 03:47:12;;;;;;;28.33;20.80;;;;;;;5.92;100.00;98397.38;5094518;28;20204;-71
2022/11/30 03:49:38;;;;;;;28.13;20.83;;;;;;;5.80;100.00;98401.41;5094504;28;20206;-71
2022/11/30 03:52:05;;;;;;;32.83;21.73;;;;;;;5.79;100.00;98402.41;5086543;22;20228;-71
2022/11/30 03:54:31;;;;;;;31.73;22.20;;;;;;;5.75;100.00;98401.13;5074175;28;20204;-71
2022/11/30 03:56:57;;;;;;;30.87;22.50;;;;;;;5.71;100.00;98403.31;5073911;28;20211;-71
2022/11/30 03:59:24;;;;;;;27.53;20.77;;;;;;;5.74;100.00;98397.66;5074017;28;20228;-71
2022/11/30 04:01:50;;;;;;;34.03;21.80;;;;;;;5.67;100.00;98394.13;5088271;28;20795;-71
2022/11/30 04:04:16;;;;;;;26.70;20.33;;;;;;;5.71;100.00;98399.84;5094181;28;20208;-71
2022/11/30 04:06:43;;;;;;;26.67;20.33;;;;;;;5.73;100.00;98395.19;5093893;28;20576;-71
2022/11/30 04:09:10;;;;;;;26.57;19.57;;;;;;;5.85;100.00;98402.53;5094323;28;20209;-71
2022/11/30 04:11:36;;;;;;;24.67;18.67;;;;;;;5.81;100.00;98398.63;5093772;28;20314;-71
2022/11/30 04:14:03;;;;;;;26.80;18.43;;;;;;;5.88;100.00;98402.16;5094063;28;20210;-71
2022/11/30 04:16:29;;;;;;;24.50;18.40;;;;;;;5.76;100.00;98400.94;5093899;28;20204;-71
2022/11/30 04:18:55;;;;;;;26.23;19.53;;;;;;;5.79;100.00;98400.56;5093835;28;20220;-71
2022/11/30 04:21:22;;;;;;;25.50;19.70;;;;;;;5.75;100.00;98399.28;5093811;28;20223;-71
2022/11/30 04:23:48;;;;;;;26.83;19.47;;;;;;;5.76;100.00;98397.47;5093200;28;20210;-71
2022/11/30 04:26:16;;;;;;;24.50;18.27;;;;;;;5.78;100.00;98400.75;5093908;28;20200;-71
2022/11/30 04:28:43;;;;;;;28.60;18.27;;;;;;;5.67;100.00;98399.41;5093858;28;20210;-71
2022/11/30 04:31:10;;;;;;;26.03;18.73;;;;;;;5.69;100.00;98404.47;5093413;28;20230;-71
2022/11/30 04:33:37;;;;;;;25.07;18.50;;;;;;;5.73;100.00;98403.94;5094006;28;20207;-71
2022/11/30 04:36:06;;;;;;;23.20;16.90;;;;;;;5.74;100.00;98399.50;5093411;28;20199;-71
2022/11/30 04:38:34;;;;;;;22.83;17.33;;;;;;;5.75;100.00;98396.66;5093443;28;20226;-71
2022/11/30 04:41:06;;;;;;;24.23;17.70;;;;;;;5.72;100.00;98399.66;5093484;28;20227;-70
2022/11/30 04:43:32;;;;;;;20.87;15.80;;;;;;;5.63;100.00;98406.03;5093827;28;20577;-71
2022/11/30 04:45:59;;;;;;;23.07;17.57;;;;;;;5.60;100.00;98401.09;5093580;28;20577;-71
2022/11/30 04:48:25;;;;;;;21.60;16.73;;;;;;;5.72;100.00;98399.66;5093356;28;20199;-71
2022/11/30 04:50:52;;;;;;;22.43;16.43;;;;;;;5.78;100.00;98401.56;5093249;28;20236;-71
2022/11/30 04:53:18;;;;;;;22.07;16.13;;;;;;;5.69;100.00;98399.19;5093149;28;20210;-71
2022/11/30 04:55:44;;;;;;;21.10;17.00;;;;;;;5.70;100.00;98406.13;5093435;28;20225;-71
2022/11/30 04:58:11;;;;;;;21.23;16.47;;;;;;;5.82;100.00;98400.25;5093342;28;20228;-71
2022/11/30 05:00:37;;;;;;;19.53;15.10;;;;;;;5.77;100.00;98402.59;5093390;28;20242;-71
2022/11/30 05:03:04;;;;;;;19.63;15.07;;;;;;;5.76;100.00;98397.47;5093301;28;20203;-71
2022/11/30 05:05:30;;;;;;;23.30;16.33;;;;;;;5.69;100.00;98401.81;5093231;28;20287;-71
2022/11/30 05:07:59;;;;;;;21.40;15.17;;;;;;;5.64;100.00;98399.75;5093410;28;20204;-71
2022/11/30 05:10:27;;;;;;;18.13;15.00;;;;;;;5.73;100.00;98403.09;5092963;28;20693;-71
2022/11/30 05:12:54;;;;;;;20.43;15.30;;;;;;;5.74;100.00;98408.22;5093158;28;20204;-71
2022/11/30 05:15:20;;;;;;;19.53;15.30;;;;;;;5.75;100.00;98407.19;5092857;28;20667;-71
2022/11/30 05:17:47;;;;;;;20.80;16.53;;;;;;;5.76;100.00;98408.88;5093362;28;20250;-71
2022/11/30 05:20:13;;;;;;;18.50;14.60;;;;;;;5.76;100.00;98408.03;5092637;28;20699;-71
2022/11/30 05:22:40;;;;;;;19.07;15.10;;;;;;;5.74;100.00;98404.78;5093146;28;20208;-71
2022/11/30 05:25:07;;;;;;;18.07;15.37;;;;;;;5.76;100.00;98414.13;5092902;28;20208;-71
2022/11/30 05:27:34;;;;;;;18.30;15.23;;;;;;;5.73;100.00;98413.66;5093061;28;20200;-71
2022/11/30 05:30:00;;;;;;;19.33;14.17;;;;;;;5.74;100.00;98416.13;5092793;28;20295;-71
2022/11/30 05:32:27;;;;;;;19.20;14.10;;;;;;;5.77;100.00;98414.94;5093111;28;20223;-71
2022/11/30 05:34:53;;;;;;;19.10;14.00;;;;;;;5.74;100.00;98413.47;5094888;28;20210;-71
2022/11/30 05:37:19;;;;;;;18.20;14.77;;;;;;;5.70;100.00;98416.69;5096719;28;20210;-71
2022/11/30 05:39:46;;;;;;;18.97;14.50;;;;;;;5.73;100.00;98425.03;5096556;28;20306;-71
2022/11/30 05:42:12;;;;;;;19.20;14.90;;;;;;;5.74;100.00;98425.88;5096249;28;20418;-71
2022/11/30 05:44:39;;;;;;;20.50;14.50;;;;;;;5.74;100.00;98420.59;5096319;28;20659;-71
2022/11/30 05:47:05;;;;;;;19.23;14.00;;;;;;;5.89;100.00;98426.72;5096075;28;20204;-71
2022/11/30 05:49:32;;;;;;;17.67;13.73;;;;;;;5.84;100.00;98421.19;5096230;28;20204;-71
2022/11/30 05:51:58;;;;;;;17.83;13.80;;;;;;;5.95;100.00;98426.00;5096403;28;20242;-71
2022/11/30 05:54:25;;;;;;;16.33;13.70;;;;;;;5.84;100.00;98421.97;5096322;28;20200;-71
2022/11/30 05:56:51;;;;;;;22.57;15.70;;;;;;;5.75;100.00;98423.03;5096171;28;20208;-72
2022/11/30 05:59:17;;;;;;;18.07;14.10;;;;;;;5.85;100.00;98426.28;5096820;28;20223;-71
2022/11/30 06:01:44;;;;;;;15.17;13.40;;;;;;;5.79;100.00;98423.50;5096039;28;20260;-72
2022/11/30 06:04:10;;;;;;;17.30;14.00;;;;;;;5.88;100.00;98422.47;5096067;28;20203;-72
2022/11/30 06:06:37;;;;;;;18.00;13.23;;;;;;;5.94;100.00;98432.28;5095638;28;20268;-71
2022/11/30 06:09:03;;;;;;;18.83;15.20;;;;;;;5.94;100.00;98433.13;5095878;28;20199;-71
2022/11/30 06:11:29;;;;;;;17.90;12.90;;;;;;;5.87;100.00;98420.81;5095851;28;20224;-71
2022/11/30 06:13:56;;;;;;;18.57;14.83;;;;;;;5.81;100.00;98426.81;5095960;28;20204;-72
2022/11/30 06:16:22;;;;;;;19.23;14.83;;;;;;;5.76;100.00;98424.69;5095752;28;20729;-71
2022/11/30 06:18:48;;;;;;;20.27;16.37;;;;;;;5.75;100.00;98427.50;5095484;28;20669;-71
2022/11/30 06:21:15;;;;;;;18.37;14.43;;;;;;;5.85;100.00;98430.72;5095343;28;20228;-71
2022/11/30 06:23:41;;;;;;;18.40;14.93;;;;;;;5.74;100.00;98423.25;5095367;28;20294;-71
2022/11/30 06:26:10;;;;;;;17.93;14.67;;;;;;;5.73;100.00;98417.13;5095183;28;20649;-71
2022/11/30 06:28:38;;;;;;;19.27;15.20;;;;;;;5.74;100.00;98420.59;5095559;28;20199;-71
2022/11/30 06:31:06;;;;;;;17.77;14.53;;;;;;;5.83;100.00;98422.19;5095262;28;20224;-71
2022/11/30 06:33:34;;;;;;;18.17;13.73;;;;;;;5.87;100.00;98420.81;5095251;28;20305;-71
2022/11/30 06:36:00;;;;;;;18.37;14.00;;;;;;;5.85;100.00;98417.53;5095008;28;20208;-71
2022/11/30 06:38:27;;;;;;;17.30;14.53;;;;;;;5.83;100.00;98420.34;5095118;28;20200;-71
2022/11/30 06:40:53;;;;;;;20.40;14.60;;;;;;;5.86;100.00;98424.44;5095107;28;20230;-71
2022/11/30 06:43:20;;;;;;;19.17;14.93;;;;;;;5.77;100.00;98417.59;5095416;28;20565;-71
2022/11/30 06:45:47;;;;;;;20.73;14.80;;;;;;;5.78;100.00;98421.84;5093773;28;20211;-71
2022/11/30 06:48:14;;;;;;;18.27;14.50;;;;;;;5.68;100.00;98418.66;5094722;28;20199;-71
2022/11/30 06:50:40;;;;;;;17.20;14.03;;;;;;;5.75;100.00;98422.22;5094065;28;20236;-71
2022/11/30 06:53:07;;;;;;;18.13;14.83;;;;;;;5.83;100.00;98424.81;5094856;28;20195;-71
2022/11/30 06:55:34;;;;;;;19.07;14.07;;;;;;;5.85;100.00;98428.09;5095710;28;20208;-71
2022/11/30 06:58:10;;;;;;;20.97;14.43;;;;;;;5.80;100.00;98433.06;5094643;28;20261;-71
2022/11/30 07:00:38;;;;;;;16.30;13.40;;;;;;;5.83;100.00;98435.38;5089304;28;20699;-73
2022/11/30 07:03:05;;;;;;;18.27;13.47;;;;;;;5.83;100.00;98427.47;5085432;28;20200;-73
2022/11/30 07:05:39;;;;;;;18.90;13.43;;;;;;;5.78;100.00;98427.13;5083761;28;20287;-73
2022/11/30 07:08:05;;;;;;;19.57;13.50;;;;;;;5.79;100.00;98439.34;5083059;28;20195;-73
2022/11/30 07:10:32;;;;;;;17.93;13.77;;;;;;;5.95;100.00;98433.91;5088240;28;20226;-73
2022/11/30 07:12:59;;;;;;;18.33;13.83;;;;;;;5.95;100.00;98440.03;5094351;28;20210;-72
2022/11/30 07:15:25;;;;;;;15.97;13.73;;;;;;;5.84;100.00;98431.72;5094548;28;20238;-72
2022/11/30 07:17:52;;;;;;;16.83;13.37;;;;;;;5.95;100.00;98436.56;5094181;28;20204;-72
2022/11/30 07:20:18;;;;;;;16.97;12.60;;;;;;;6.00;100.00;98439.47;5093965;28;20717;-73
2022/11/30 07:22:44;;;;;;;15.60;12.93;;;;;;;6.03;100.00;98442.59;5094197;28;20580;-72
2022/11/30 07:27:55;;;;;;;16.33;12.17;;;;;;;6.04;100.00;98438.13;5094792;28;20170;-72
2022/11/30 07:30:21;;;;;;;15.23;13.00;;;;;;;5.99;100.00;98443.94;5094416;28;20211;-73
2022/11/30 07:32:48;;;;;;;16.10;13.50;;;;;;;6.05;100.00;98445.84;5094105;28;20210;-72
2022/11/30 07:35:14;;;;;;;15.43;13.70;;;;;;;5.94;100.00;98453.41;5094378;28;20206;-73
2022/11/30 07:37:41;;;;;;;18.17;14.33;;;;;;;5.89;100.00;98445.19;5094584;28;20554;-72
2022/11/30 07:40:08;;;;;;;19.83;14.30;;;;;;;5.94;100.00;98448.13;5093996;28;20227;-73
2022/11/30 07:42:34;;;;;;;23.33;15.10;;;;;;;5.95;100.00;98447.13;5093824;28;20220;-72
2022/11/30 07:45:01;;;;;;;19.70;14.43;;;;;;;5.95;100.00;98444.47;5094107;28;20251;-73
2022/11/30 07:47:27;;;;;;;21.53;15.03;;;;;;;5.96;100.00;98441.66;5094004;28;20200;-73
2022/11/30 07:49:53;;;;;;;18.13;13.67;;;;;;;6.07;100.00;98443.03;5093769;28;20671;-72
2022/11/30 07:52:20;;;;;;;17.73;14.37;;;;;;;5.99;100.00;98443.94;5093551;28;20235;-73
2022/11/30 07:54:46;;;;;;;17.57;14.63;;;;;;;6.03;100.00;98454.97;5093734;28;20204;-72
2022/11/30 07:57:12;;;;;;;20.53;15.77;;;;;;;6.05;100.00;98451.13;5093967;28;20304;-72
2022/11/30 07:59:39;;;;;;;18.30;14.10;;;;;;;6.04;100.00;98449.50;5093976;28;20227;-72
2022/11/30 08:02:05;;;;;;;19.47;15.17;;;;;;;6.08;100.00;98456.06;5093471;28;20231;-72
2022/11/30 08:04:31;;;;;;;21.50;15.03;;;;;;;6.07;100.00;98454.41;5093901;28;20218;-70
2022/11/30 08:06:58;;;;;;;20.07;15.77;;;;;;;6.10;100.00;98461.97;5093664;28;20208;-70
2022/11/30 08:09:24;;;;;;;20.40;14.93;;;;;;;6.16;100.00;98460.44;5093771;28;20306;-72
2022/11/30 08:11:51;;;;;;;21.93;15.73;;;;;;;6.22;100.00;98462.34;5093781;28;20223;-72
2022/11/30 08:14:17;;;;;;;19.27;15.17;;;;;;;6.16;100.00;98468.34;5093378;28;20209;-71
2022/11/30 08:16:43;;;;;;;19.53;15.43;;;;;;;6.36;100.00;98472.91;5093724;28;20216;-72
2022/11/30 08:19:10;;;;;;;17.73;14.87;;;;;;;6.40;100.00;98470.72;5093265;28;20232;-72
2022/11/30 08:21:37;;;;;;;20.87;15.40;;;;;;;6.35;100.00;98475.72;5093427;28;20781;-72
2022/11/30 08:24:03;;;;;;;17.63;15.07;;;;;;;6.32;100.00;98468.16;5093671;28;20203;-71
2022/11/30 08:26:32;;;;;;;20.73;15.70;;;;;;;6.38;100.00;98473.53;5093443;28;20204;-72
2022/11/30 08:29:01;;;;;;;19.47;15.67;;;;;;;6.48;100.00;98475.91;5093724;28;20231;-72
2022/11/30 08:31:31;;;;;;;20.03;15.83;;;;;;;6.50;100.00;98477.38;5093163;28;20224;-72
2022/11/30 08:34:04;;;;;;;20.07;15.17;;;;;;;6.58;100.00;98473.81;5093376;28;20309;-71
2022/11/30 08:36:31;;;;;;;18.30;15.20;;;;;;;6.57;100.00;98477.47;5093518;28;20208;-71
2022/11/30 08:38:59;;;;;;;20.30;15.33;;;;;;;6.53;100.00;98476.19;5093339;28;20286;-71
2022/11/30 08:41:26;;;;;;;19.37;15.40;;;;;;;6.50;100.00;98479.19;5092940;28;20230;-72
2022/11/30 08:43:52;;;;;;;18.93;15.27;;;;;;;6.50;100.00;98474.72;5093495;28;20206;-71
2022/11/30 08:46:22;;;;;;;21.83;15.80;;;;;;;6.50;100.00;98482.66;5093466;28;20595;-72
2022/11/30 08:48:49;;;;;;;19.13;14.90;;;;;;;6.50;100.00;98477.38;5092560;28;20667;-71
2022/11/30 08:51:18;;;;;;;18.80;14.80;;;;;;;6.66;100.00;98481.63;5093145;28;20610;-71
2022/11/30 08:53:45;;;;;;;20.77;15.53;;;;;;;6.62;100.00;98483.00;5093397;28;20208;-72
2022/11/30 08:56:16;;;;;;;16.47;14.67;;;;;;;6.59;100.00;98483.38;5093180;28;20200;-72
2022/11/30 08:58:42;;;;;;;19.90;15.20;;;;;;;6.57;100.00;98490.66;5093546;28;20294;-72
2022/11/30 09:01:11;;;;;;;18.67;15.47;;;;;;;6.68;100.00;98490.19;5093264;28;20255;-72
2022/11/30 09:03:38;;;;;;;19.10;15.13;;;;;;;6.75;100.00;98485.81;5092832;28;20239;-72
2022/11/30 09:06:07;;;;;;;18.63;15.50;;;;;;;6.69;100.00;98492.66;5093111;28;20210;-72
2022/11/30 09:08:34;;;;;;;17.93;14.57;;;;;;;6.75;100.00;98493.75;5093245;28;20199;-72
2022/11/30 09:11:12;;;;;;;16.87;14.27;;;;;;;6.87;100.00;98493.09;5097078;28;20222;-72
2022/11/30 09:13:40;;;;;;;19.53;14.83;;;;;;;6.78;100.00;98499.47;5097304;28;20188;-72
2022/11/30 09:16:07;;;;;;;18.70;13.83;;;;;;;6.83;100.00;98502.38;5097270;28;20200;-71
2022/11/30 09:18:34;;;;;;;18.20;15.30;;;;;;;6.90;100.00;98500.66;5096827;28;20210;-70
2022/11/30 09:21:01;;;;;;;18.63;14.70;;;;;;;6.83;100.00;98505.03;5096571;28;20227;-71
2022/11/30 09:23:28;;;;;;;19.87;14.93;;;;;;;6.80;100.00;98512.50;5097146;28;20295;-70
2022/11/30 09:25:57;;;;;;;20.50;15.63;;;;;;;6.87;100.00;98501.00;5097064;28;20210;-71
2022/11/30 09:28:24;;;;;;;20.13;15.50;;;;;;;6.88;100.00;98507.13;5097037;28;20200;-70
2022/11/30 09:30:50;;;;;;;21.00;16.03;;;;;;;6.89;100.00;98509.59;5097087;28;20598;-70
2022/11/30 09:33:21;;;;;;;21.13;16.40;;;;;;;7.00;100.00;98510.91;5096496;28;20200;-70
2022/11/30 09:35:58;;;;;;;18.93;15.90;;;;;;;6.98;100.00;98512.94;5096420;28;20569;-70
2022/11/30 09:38:25;;;;;;;21.47;16.57;;;;;;;6.98;100.00;98516.41;5095085;28;20268;-70
2022/11/30 09:40:56;;;;;;;19.63;16.93;;;;;;;7.06;100.00;98507.56;5096483;28;20234;-70
2022/11/30 09:43:49;;;;;;;19.80;16.70;;;;;;;6.99;100.00;98512.75;5096388;28;20199;-70
2022/11/30 09:46:17;;;;;;;19.67;15.83;;;;;;;6.95;100.00;98514.13;5096360;28;20195;-70
2022/11/30 09:48:59;;;;;;;21.67;16.60;;;;;;;6.93;100.00;98520.59;5096444;28;20204;-70
2022/11/30 09:51:53;;;;;;;21.53;16.40;;;;;;;7.12;100.00;98512.91;5096361;28;20732;-70
2022/11/30 09:54:34;;;;;;;19.17;15.50;;;;;;;7.14;100.00;98515.34;5092761;28;20210;-70
2022/11/30 09:57:04;;;;;;;19.93;16.70;;;;;;;7.16;100.00;98513.34;5096795;28;20192;-70
2022/11/30 09:59:33;;;;;;;20.53;15.30;;;;;;;6.92;100.00;98511.84;5078158;28;20249;-70
2022/11/30 10:02:12;;;;;;;22.40;16.53;;;;;;;6.92;100.00;98500.47;5096368;28;20234;-70
2022/11/30 10:04:38;;;;;;;21.57;16.07;;;;;;;7.01;100.00;98502.00;5096887;28;20256;-70
2022/11/30 10:07:32;;;;;;;21.03;16.73;;;;;;;7.04;100.00;98509.53;5096212;28;20200;-70
2022/11/30 10:10:21;;;;;;;21.17;17.17;;;;;;;7.06;100.00;98507.56;5095897;28;20524;-70
2022/11/30 10:13:26;;;;;;;20.03;15.77;;;;;;;7.15;100.00;98506.44;5096081;28;20199;-70
2022/11/30 10:16:07;;;;;;;18.27;15.60;;;;;;;7.24;100.00;98498.19;5078263;28;20211;-70
2022/11/30 10:18:54;;;;;;;25.47;17.63;;;;;;;7.34;100.00;98500.53;5096153;28;20192;-70
2022/11/30 10:21:48;;;;;;;21.17;16.80;;;;;;;7.24;100.00;98494.75;5094701;28;20236;-70
2022/11/30 10:24:37;;;;;;;22.73;16.73;;;;;;;7.47;100.00;98498.03;5077896;28;20584;-70
2022/11/30 10:27:43;;;;;;;22.70;17.53;;;;;;;7.47;100.00;98500.69;5080332;28;20192;-70
2022/11/30 10:30:20;;;;;;;19.80;15.53;;;;;;;7.35;100.00;98504.81;5095681;28;20188;-70
2022/11/30 10:32:51;;;;;;;20.47;16.57;;;;;;;7.42;100.00;98503.06;5095642;28;20192;-70
2022/11/30 10:35:33;;;;;;;18.37;15.03;;;;;;;7.33;100.00;98506.84;5095541;28;20193;-70
2022/11/30 10:38:05;;;;;;;21.03;16.10;;;;;;;7.41;100.00;98499.59;5095181;28;20576;-70
2022/11/30 10:40:44;;;;;;;18.57;14.93;;;;;;;7.40;100.00;98497.13;5095380;28;20241;-70
2022/11/30 10:43:40;;;;;;;22.53;17.07;;;;;;;7.19;100.00;98502.41;5094990;28;20677;-70
2022/11/30 10:46:31;;;;;;;20.43;15.97;;;;;;;7.27;100.00;98499.63;5095872;28;20200;-70
2022/11/30 10:49:04;;;;;;;19.40;15.77;;;;;;;7.08;100.00;98500.25;5095088;28;20544;-70
2022/11/30 10:51:34;;;;;;;20.67;16.17;;;;;;;7.02;100.00;98498.34;5094961;28;20701;-70
2022/11/30 10:54:01;;;;;;;22.03;15.93;;;;;;;7.14;100.00;98491.56;5095014;28;20204;-72
2022/11/30 10:56:27;;;;;;;21.73;15.93;;;;;;;7.18;100.00;98496.31;5095250;28;20204;-72
2022/11/30 10:59:03;;;;;;;20.67;15.97;;;;;;;7.12;100.00;98490.94;5094743;28;20210;-71
2022/11/30 11:01:38;;;;;;;20.50;16.63;;;;;;;7.13;100.00;98495.22;5094315;28;20226;-71
2022/11/30 11:04:21;;;;;;;19.17;14.67;;;;;;;7.05;100.00;98482.94;5094954;28;20290;-71
2022/11/30 11:06:52;;;;;;;19.90;15.57;;;;;;;7.12;100.00;98489.13;5094978;28;20192;-71
2022/11/30 11:09:32;;;;;;;18.73;15.40;;;;;;;7.19;100.00;98491.84;5094875;28;20556;-70
2022/11/30 11:12:00;;;;;;;19.63;15.83;;;;;;;7.25;100.00;98494.56;5094830;28;20233;-71
2022/11/30 11:14:28;;;;;;;22.67;16.30;;;;;;;7.16;100.00;98484.28;5094805;28;20200;-70
2022/11/30 11:17:00;;;;;;;20.67;16.30;;;;;;;7.12;100.00;98494.41;5094448;28;20671;-70
2022/11/30 11:19:41;;;;;;;20.03;16.17;;;;;;;7.07;100.00;98493.31;5094345;28;20675;-70
2022/11/30 11:22:17;;;;;;;21.20;16.30;;;;;;;7.26;100.00;98495.34;5094700;28;20227;-70
2022/11/30 11:24:44;;;;;;;19.67;14.70;;;;;;;7.27;100.00;98494.34;5094714;28;20206;-70
2022/11/30 11:27:23;;;;;;;19.23;15.33;;;;;;;7.19;100.00;98487.34;5094506;28;20277;-70
2022/11/30 11:30:28;;;;;;;18.73;13.70;;;;;;;7.29;100.00;98489.72;5094411;28;20199;-70